sensor_id;sensor_type;location;lat;lon;timestamp;temperature;humidity
24664;DHT22;12791;50.992;13.788;2023-04-16T00:00:31;8.50;99.90
24664;DHT22;12791;50.992;13.788;2023-04-16T00:02:57;8.50;99.90
24664;DHT22;12791;50.992;13.788;2023-04-16T00:05:24;8.60;99.90
24664;DHT22;12791;50.992;13.788;2023-04-16T00:07:52;8.50;99.90
24664;DHT22;12791;50.992;13.788;2023-04-16T00:10:19;8.40;99.90
24664;DHT22;12791;50.992;13.788;2023-04-16T00:12:46;8.70;99.90
24664;DHT22;12791;50.992;13.788;2023-04-16T00:15:12;8.40;99.90
24664;DHT22;12791;50.992;13.788;2023-04-16T00:17:39;8.30;99.90
24664;DHT22;12791;50.992;13.788;2023-04-16T00:20:06;8.30;99.90
24664;DHT22;12791;50.992;13.788;2023-04-16T00:22:34;8.30;99.90
24664;DHT22;12791;50.992;13.788;2023-04-16T00:25:02;8.30;99.90
24664;DHT22;12791;50.992;13.788;2023-04-16T00:27:28;8.10;99.90
24664;DHT22;12791;50.992;13.788;2023-04-16T00:29:55;8.10;99.90
24664;DHT22;12791;50.992;13.788;2023-04-16T00:32:22;8.10;99.90
24664;DHT22;12791;50.992;13.788;2023-04-16T00:34:48;8.20;99.90
24664;DHT22;12791;50.992;13.788;2023-04-16T00:37:15;8.10;99.90
24664;DHT22;12791;50.992;13.788;2023-04-16T00:39:41;8.10;99.90
24664;DHT22;12791;50.992;13.788;2023-04-16T00:42:09;8.10;99.90
24664;DHT22;12791;50.992;13.788;2023-04-16T00:44:36;8.40;99.90
24664;DHT22;12791;50.992;13.788;2023-04-16T00:47:03;8.00;99.90
24664;DHT22;12791;50.992;13.788;2023-04-16T00:49:31;8.00;99.90
24664;DHT22;12791;50.992;13.788;2023-04-16T00:51:58;8.00;99.90
24664;DHT22;12791;50.992;13.788;2023-04-16T00:54:27;7.90;99.90
24664;DHT22;12791;50.992;13.788;2023-04-16T00:56:54;8.20;99.90
24664;DHT22;12791;50.992;13.788;2023-04-16T00:59:23;7.90;99.90
24664;DHT22;12791;50.992;13.788;2023-04-16T01:01:50;7.90;99.90
24664;DHT22;12791;50.992;13.788;2023-04-16T01:04:17;7.90;99.90
24664;DHT22;12791;50.992;13.788;2023-04-16T01:06:43;7.90;99.90
24664;DHT22;12791;50.992;13.788;2023-04-16T01:09:10;7.80;99.90
24664;DHT22;12791;50.992;13.788;2023-04-16T01:11:37;7.90;99.90
24664;DHT22;12791;50.992;13.788;2023-04-16T01:14:04;7.80;99.90
24664;DHT22;12791;50.992;13.788;2023-04-16T01:16:32;7.70;99.90
24664;DHT22;12791;50.992;13.788;2023-04-16T01:18:58;7.70;99.90
24664;DHT22;12791;50.992;13.788;2023-04-16T01:21:26;7.60;99.90
24664;DHT22;12791;50.992;13.788;2023-04-16T01:23:53;7.70;99.90
24664;DHT22;12791;50.992;13.788;2023-04-16T01:26:20;7.60;99.90
24664;DHT22;12791;50.992;13.788;2023-04-16T01:28:46;7.60;99.90
24664;DHT22;12791;50.992;13.788;2023-04-16T01:31:13;7.50;99.90
24664;DHT22;12791;50.992;13.788;2023-04-16T01:33:39;7.50;99.90
24664;DHT22;12791;50.992;13.788;2023-04-16T01:36:06;7.50;99.90
24664;DHT22;12791;50.992;13.788;2023-04-16T01:38:34;7.60;99.90
24664;DHT22;12791;50.992;13.788;2023-04-16T01:41:01;7.50;99.90
24664;DHT22;12791;50.992;13.788;2023-04-16T01:43:27;7.50;99.90
24664;DHT22;12791;50.992;13.788;2023-04-16T01:46:06;7.40;99.90
24664;DHT22;12791;50.992;13.788;2023-04-16T01:48:35;7.30;99.90
24664;DHT22;12791;50.992;13.788;2023-04-16T01:51:02;7.30;99.90
24664;DHT22;12791;50.992;13.788;2023-04-16T01:53:29;7.10;99.90
24664;DHT22;12791;50.992;13.788;2023-04-16T01:55:57;7.20;99.90
24664;DHT22;12791;50.992;13.788;2023-04-16T01:58:24;7.20;99.90
24664;DHT22;12791;50.992;13.788;2023-04-16T02:00:50;7.00;99.90
24664;DHT22;12791;50.992;13.788;2023-04-16T02:03:17;7.10;99.90
24664;DHT22;12791;50.992;13.788;2023-04-16T02:05:44;7.10;99.90
24664;DHT22;12791;50.992;13.788;2023-04-16T02:08:11;7.00;99.90
24664;DHT22;12791;50.992;13.788;2023-04-16T02:10:38;7.10;99.90
24664;DHT22;12791;50.992;13.788;2023-04-16T02:13:06;6.90;99.90
24664;DHT22;12791;50.992;13.788;2023-04-16T02:15:32;7.00;99.90
24664;DHT22;12791;50.992;13.788;2023-04-16T02:17:59;6.80;99.90
24664;DHT22;12791;50.992;13.788;2023-04-16T02:20:25;6.70;99.90
24664;DHT22;12791;50.992;13.788;2023-04-16T02:22:53;7.00;99.90
24664;DHT22;12791;50.992;13.788;2023-04-16T02:25:20;6.80;99.90
24664;DHT22;12791;50.992;13.788;2023-04-16T02:27:47;6.80;99.90
24664;DHT22;12791;50.992;13.788;2023-04-16T02:30:15;6.80;99.90
24664;DHT22;12791;50.992;13.788;2023-04-16T02:32:42;6.80;99.90
24664;DHT22;12791;50.992;13.788;2023-04-16T02:35:08;6.70;99.90
24664;DHT22;12791;50.992;13.788;2023-04-16T02:37:35;6.70;99.90
24664;DHT22;12791;50.992;13.788;2023-04-16T02:40:02;6.70;99.90
24664;DHT22;12791;50.992;13.788;2023-04-16T02:42:28;6.70;99.90
24664;DHT22;12791;50.992;13.788;2023-04-16T02:44:55;6.60;99.90
24664;DHT22;12791;50.992;13.788;2023-04-16T02:47:23;6.60;99.90
24664;DHT22;12791;50.992;13.788;2023-04-16T02:49:49;6.60;99.90
24664;DHT22;12791;50.992;13.788;2023-04-16T02:52:16;6.70;99.90
24664;DHT22;12791;50.992;13.788;2023-04-16T02:54:42;6.50;99.90
24664;DHT22;12791;50.992;13.788;2023-04-16T02:57:09;6.40;99.90
24664;DHT22;12791;50.992;13.788;2023-04-16T02:59:36;6.40;99.90
24664;DHT22;12791;50.992;13.788;2023-04-16T03:02:02;6.40;99.90
24664;DHT22;12791;50.992;13.788;2023-04-16T03:04:31;6.40;99.90
24664;DHT22;12791;50.992;13.788;2023-04-16T03:06:58;6.40;99.90
24664;DHT22;12791;50.992;13.788;2023-04-16T03:09:24;6.40;99.90
24664;DHT22;12791;50.992;13.788;2023-04-16T03:11:51;6.50;99.90
24664;DHT22;12791;50.992;13.788;2023-04-16T03:14:17;6.40;99.90
24664;DHT22;12791;50.992;13.788;2023-04-16T03:16:44;6.60;99.90
24664;DHT22;12791;50.992;13.788;2023-04-16T03:19:11;6.20;99.90
24664;DHT22;12791;50.992;13.788;2023-04-16T03:21:39;6.20;99.90
24664;DHT22;12791;50.992;13.788;2023-04-16T03:24:05;6.10;99.90
24664;DHT22;12791;50.992;13.788;2023-04-16T03:26:32;5.90;99.90
24664;DHT22;12791;50.992;13.788;2023-04-16T03:28:58;6.10;99.90
24664;DHT22;12791;50.992;13.788;2023-04-16T03:31:26;6.20;99.90
24664;DHT22;12791;50.992;13.788;2023-04-16T03:33:53;6.00;99.90
24664;DHT22;12791;50.992;13.788;2023-04-16T03:36:19;6.00;99.90
24664;DHT22;12791;50.992;13.788;2023-04-16T03:38:48;6.00;99.90
24664;DHT22;12791;50.992;13.788;2023-04-16T03:41:15;6.20;99.90
24664;DHT22;12791;50.992;13.788;2023-04-16T03:43:41;6.00;99.90
24664;DHT22;12791;50.992;13.788;2023-04-16T03:46:08;6.20;99.90
24664;DHT22;12791;50.992;13.788;2023-04-16T03:48:35;5.80;99.90
24664;DHT22;12791;50.992;13.788;2023-04-16T03:51:01;5.90;99.90
24664;DHT22;12791;50.992;13.788;2023-04-16T03:53:28;6.10;99.90
24664;DHT22;12791;50.992;13.788;2023-04-16T03:55:56;6.10;99.90
24664;DHT22;12791;50.992;13.788;2023-04-16T03:58:23;5.90;99.90
24664;DHT22;12791;50.992;13.788;2023-04-16T04:00:51;6.00;99.90
24664;DHT22;12791;50.992;13.788;2023-04-16T04:03:19;5.70;99.90
24664;DHT22;12791;50.992;13.788;2023-04-16T04:05:45;5.70;99.90
24664;DHT22;12791;50.992;13.788;2023-04-16T04:08:12;5.70;99.90
24664;DHT22;12791;50.992;13.788;2023-04-16T04:10:38;5.90;99.90
24664;DHT22;12791;50.992;13.788;2023-04-16T04:13:06;5.70;99.90
24664;DHT22;12791;50.992;13.788;2023-04-16T04:15:33;5.90;99.90
24664;DHT22;12791;50.992;13.788;2023-04-16T04:18:00;5.80;99.90
24664;DHT22;12791;50.992;13.788;2023-04-16T04:20:26;5.70;99.90
24664;DHT22;12791;50.992;13.788;2023-04-16T04:22:53;5.40;99.90
24664;DHT22;12791;50.992;13.788;2023-04-16T04:25:19;5.50;99.90
24664;DHT22;12791;50.992;13.788;2023-04-16T04:27:46;5.50;99.90
24664;DHT22;12791;50.992;13.788;2023-04-16T04:30:14;5.80;99.90
24664;DHT22;12791;50.992;13.788;2023-04-16T04:32:41;5.50;99.90
24664;DHT22;12791;50.992;13.788;2023-04-16T04:35:08;5.80;99.90
24664;DHT22;12791;50.992;13.788;2023-04-16T04:37:35;5.60;99.90
24664;DHT22;12791;50.992;13.788;2023-04-16T04:40:01;5.60;99.90
24664;DHT22;12791;50.992;13.788;2023-04-16T04:42:28;5.50;99.90
24664;DHT22;12791;50.992;13.788;2023-04-16T04:44:55;5.60;99.90
24664;DHT22;12791;50.992;13.788;2023-04-16T04:47:23;5.50;99.90
24664;DHT22;12791;50.992;13.788;2023-04-16T04:49:49;5.60;99.90
24664;DHT22;12791;50.992;13.788;2023-04-16T04:52:16;5.60;99.90
24664;DHT22;12791;50.992;13.788;2023-04-16T04:54:45;5.60;99.90
24664;DHT22;12791;50.992;13.788;2023-04-16T04:57:12;5.60;99.90
24664;DHT22;12791;50.992;13.788;2023-04-16T04:59:38;5.50;99.90
24664;DHT22;12791;50.992;13.788;2023-04-16T05:02:05;5.60;99.90
24664;DHT22;12791;50.992;13.788;2023-04-16T05:04:33;5.60;99.90
24664;DHT22;12791;50.992;13.788;2023-04-16T05:06:59;5.50;99.90
24664;DHT22;12791;50.992;13.788;2023-04-16T05:09:26;5.70;99.90
24664;DHT22;12791;50.992;13.788;2023-04-16T05:11:53;5.60;99.90
24664;DHT22;12791;50.992;13.788;2023-04-16T05:14:20;5.60;99.90
24664;DHT22;12791;50.992;13.788;2023-04-16T05:16:46;5.70;99.90
24664;DHT22;12791;50.992;13.788;2023-04-16T05:19:13;5.80;99.90
24664;DHT22;12791;50.992;13.788;2023-04-16T05:21:41;5.90;99.90
24664;DHT22;12791;50.992;13.788;2023-04-16T05:24:07;6.00;99.90
24664;DHT22;12791;50.992;13.788;2023-04-16T05:26:34;5.80;99.90
24664;DHT22;12791;50.992;13.788;2023-04-16T05:29:01;5.90;99.90
24664;DHT22;12791;50.992;13.788;2023-04-16T05:31:27;5.90;99.90
24664;DHT22;12791;50.992;13.788;2023-04-16T05:33:54;6.20;99.90
24664;DHT22;12791;50.992;13.788;2023-04-16T05:36:20;6.10;99.90
24664;DHT22;12791;50.992;13.788;2023-04-16T05:38:48;6.30;99.90
24664;DHT22;12791;50.992;13.788;2023-04-16T05:41:15;6.50;99.90
24664;DHT22;12791;50.992;13.788;2023-04-16T05:43:41;6.30;99.90
24664;DHT22;12791;50.992;13.788;2023-04-16T05:46:08;6.40;99.90
24664;DHT22;12791;50.992;13.788;2023-04-16T05:48:35;6.40;99.90
24664;DHT22;12791;50.992;13.788;2023-04-16T05:51:01;6.30;99.90
24664;DHT22;12791;50.992;13.788;2023-04-16T05:53:28;6.50;99.90
24664;DHT22;12791;50.992;13.788;2023-04-16T05:55:56;6.60;99.90
24664;DHT22;12791;50.992;13.788;2023-04-16T05:58:22;6.70;99.90
24664;DHT22;12791;50.992;13.788;2023-04-16T06:00:49;6.70;99.90
24664;DHT22;12791;50.992;13.788;2023-04-16T06:03:15;6.70;99.90
24664;DHT22;12791;50.992;13.788;2023-04-16T06:05:42;6.80;99.90
24664;DHT22;12791;50.992;13.788;2023-04-16T06:08:09;6.90;99.90
24664;DHT22;12791;50.992;13.788;2023-04-16T06:10:36;7.10;99.90
24664;DHT22;12791;50.992;13.788;2023-04-16T06:13:04;6.90;99.90
24664;DHT22;12791;50.992;13.788;2023-04-16T06:15:30;7.00;99.90
24664;DHT22;12791;50.992;13.788;2023-04-16T06:17:57;6.90;99.90
24664;DHT22;12791;50.992;13.788;2023-04-16T06:20:24;7.00;99.90
24664;DHT22;12791;50.992;13.788;2023-04-16T06:22:50;6.90;99.90
24664;DHT22;12791;50.992;13.788;2023-04-16T06:25:17;6.90;99.90
24664;DHT22;12791;50.992;13.788;2023-04-16T06:27:43;7.00;99.90
24664;DHT22;12791;50.992;13.788;2023-04-16T06:30:12;7.10;99.90
24664;DHT22;12791;50.992;13.788;2023-04-16T06:32:39;7.00;99.90
24664;DHT22;12791;50.992;13.788;2023-04-16T06:35:07;6.80;99.90
24664;DHT22;12791;50.992;13.788;2023-04-16T06:37:33;7.10;99.90
24664;DHT22;12791;50.992;13.788;2023-04-16T06:40:00;7.10;99.90
24664;DHT22;12791;50.992;13.788;2023-04-16T06:42:27;7.10;99.90
24664;DHT22;12791;50.992;13.788;2023-04-16T06:44:53;7.20;99.90
24664;DHT22;12791;50.992;13.788;2023-04-16T06:47:21;7.40;99.90
24664;DHT22;12791;50.992;13.788;2023-04-16T06:49:48;7.40;99.90
24664;DHT22;12791;50.992;13.788;2023-04-16T06:52:14;7.50;99.90
24664;DHT22;12791;50.992;13.788;2023-04-16T06:54:41;7.50;99.90
24664;DHT22;12791;50.992;13.788;2023-04-16T06:57:08;7.60;99.90
24664;DHT22;12791;50.992;13.788;2023-04-16T06:59:35;7.60;99.90
24664;DHT22;12791;50.992;13.788;2023-04-16T07:02:02;8.00;99.90
24664;DHT22;12791;50.992;13.788;2023-04-16T07:04:30;7.80;99.90
24664;DHT22;12791;50.992;13.788;2023-04-16T07:06:56;7.80;99.90
24664;DHT22;12791;50.992;13.788;2023-04-16T07:09:23;7.90;99.90
24664;DHT22;12791;50.992;13.788;2023-04-16T07:11:51;8.00;99.90
24664;DHT22;12791;50.992;13.788;2023-04-16T07:14:17;8.30;99.90
24664;DHT22;12791;50.992;13.788;2023-04-16T07:16:44;8.10;99.90
24664;DHT22;12791;50.992;13.788;2023-04-16T07:19:10;8.20;99.90
24664;DHT22;12791;50.992;13.788;2023-04-16T07:21:38;8.30;99.90
24664;DHT22;12791;50.992;13.788;2023-04-16T07:24:06;8.40;99.90
24664;DHT22;12791;50.992;13.788;2023-04-16T07:26:32;8.40;99.90
24664;DHT22;12791;50.992;13.788;2023-04-16T07:28:59;8.70;99.90
24664;DHT22;12791;50.992;13.788;2023-04-16T07:31:26;8.60;99.90
24664;DHT22;12791;50.992;13.788;2023-04-16T07:33:52;8.80;99.90
24664;DHT22;12791;50.992;13.788;2023-04-16T07:36:19;8.80;99.90
24664;DHT22;12791;50.992;13.788;2023-04-16T07:38:47;9.00;99.90
24664;DHT22;12791;50.992;13.788;2023-04-16T07:41:14;9.10;99.90
24664;DHT22;12791;50.992;13.788;2023-04-16T07:43:40;9.10;99.90
24664;DHT22;12791;50.992;13.788;2023-04-16T07:46:07;9.30;99.90
24664;DHT22;12791;50.992;13.788;2023-04-16T07:48:33;9.30;99.90
24664;DHT22;12791;50.992;13.788;2023-04-16T07:51:00;9.50;99.90
24664;DHT22;12791;50.992;13.788;2023-04-16T07:53:27;9.40;99.90
24664;DHT22;12791;50.992;13.788;2023-04-16T07:55:55;9.50;99.90
24664;DHT22;12791;50.992;13.788;2023-04-16T07:58:21;9.50;99.90
24664;DHT22;12791;50.992;13.788;2023-04-16T08:00:48;9.60;99.90
24664;DHT22;12791;50.992;13.788;2023-04-16T08:03:15;9.90;99.90
24664;DHT22;12791;50.992;13.788;2023-04-16T08:05:42;9.70;99.90
24664;DHT22;12791;50.992;13.788;2023-04-16T08:08:08;9.80;99.90
24664;DHT22;12791;50.992;13.788;2023-04-16T08:10:35;9.90;99.90
24664;DHT22;12791;50.992;13.788;2023-04-16T08:13:03;10.00;99.90
24664;DHT22;12791;50.992;13.788;2023-04-16T08:15:30;10.10;99.90
24664;DHT22;12791;50.992;13.788;2023-04-16T08:17:56;10.20;99.90
24664;DHT22;12791;50.992;13.788;2023-04-16T08:20:24;10.00;99.90
24664;DHT22;12791;50.992;13.788;2023-04-16T08:22:52;10.30;99.90
24664;DHT22;12791;50.992;13.788;2023-04-16T08:25:19;10.40;99.90
24664;DHT22;12791;50.992;13.788;2023-04-16T08:27:47;10.50;99.90
24664;DHT22;12791;50.992;13.788;2023-04-16T08:30:15;10.60;99.90
24664;DHT22;12791;50.992;13.788;2023-04-16T08:32:41;10.70;99.90
24664;DHT22;12791;50.992;13.788;2023-04-16T08:35:09;10.80;99.90
24664;DHT22;12791;50.992;13.788;2023-04-16T08:37:35;10.90;99.90
24664;DHT22;12791;50.992;13.788;2023-04-16T08:40:03;10.90;99.90
24664;DHT22;12791;50.992;13.788;2023-04-16T08:42:31;11.00;99.90
24664;DHT22;12791;50.992;13.788;2023-04-16T08:45:03;11.00;99.90
24664;DHT22;12791;50.992;13.788;2023-04-16T08:47:34;11.00;99.90
24664;DHT22;12791;50.992;13.788;2023-04-16T08:50:02;11.00;99.90
24664;DHT22;12791;50.992;13.788;2023-04-16T08:52:30;11.10;99.90
24664;DHT22;12791;50.992;13.788;2023-04-16T08:55:02;11.10;99.90
24664;DHT22;12791;50.992;13.788;2023-04-16T08:57:36;11.00;99.90
24664;DHT22;12791;50.992;13.788;2023-04-16T09:00:06;11.10;99.90
24664;DHT22;12791;50.992;13.788;2023-04-16T09:02:34;11.10;99.90
24664;DHT22;12791;50.992;13.788;2023-04-16T09:05:03;11.10;99.90
24664;DHT22;12791;50.992;13.788;2023-04-16T09:07:31;11.30;99.90
24664;DHT22;12791;50.992;13.788;2023-04-16T09:09:59;11.30;99.90
24664;DHT22;12791;50.992;13.788;2023-04-16T09:12:26;11.40;99.90
24664;DHT22;12791;50.992;13.788;2023-04-16T09:14:52;11.40;99.90
24664;DHT22;12791;50.992;13.788;2023-04-16T09:17:21;11.60;99.90
24664;DHT22;12791;50.992;13.788;2023-04-16T09:19:49;11.50;99.90
24664;DHT22;12791;50.992;13.788;2023-04-16T09:22:15;11.60;99.90
24664;DHT22;12791;50.992;13.788;2023-04-16T09:24:42;11.70;99.90
24664;DHT22;12791;50.992;13.788;2023-04-16T09:27:09;11.80;99.90
24664;DHT22;12791;50.992;13.788;2023-04-16T09:29:38;11.80;99.90
24664;DHT22;12791;50.992;13.788;2023-04-16T09:32:05;11.90;99.90
24664;DHT22;12791;50.992;13.788;2023-04-16T09:34:33;12.00;99.90
24664;DHT22;12791;50.992;13.788;2023-04-16T09:37:17;12.20;99.90
24664;DHT22;12791;50.992;13.788;2023-04-16T09:39:43;12.30;99.90
24664;DHT22;12791;50.992;13.788;2023-04-16T09:42:10;12.40;99.90
24664;DHT22;12791;50.992;13.788;2023-04-16T09:44:37;12.40;99.90
24664;DHT22;12791;50.992;13.788;2023-04-16T09:47:05;12.30;99.90
24664;DHT22;12791;50.992;13.788;2023-04-16T09:49:33;12.40;99.90
24664;DHT22;12791;50.992;13.788;2023-04-16T09:52:01;12.40;99.90
24664;DHT22;12791;50.992;13.788;2023-04-16T09:54:29;12.40;99.90
24664;DHT22;12791;50.992;13.788;2023-04-16T09:56:56;12.40;99.90
24664;DHT22;12791;50.992;13.788;2023-04-16T09:59:23;12.40;99.90
24664;DHT22;12791;50.992;13.788;2023-04-16T10:01:50;12.40;99.90
24664;DHT22;12791;50.992;13.788;2023-04-16T10:04:18;12.40;99.90
24664;DHT22;12791;50.992;13.788;2023-04-16T10:07:01;12.40;99.90
24664;DHT22;12791;50.992;13.788;2023-04-16T10:09:32;12.40;99.90
24664;DHT22;12791;50.992;13.788;2023-04-16T10:12:02;12.50;99.90
24664;DHT22;12791;50.992;13.788;2023-04-16T10:14:29;12.50;99.90
24664;DHT22;12791;50.992;13.788;2023-04-16T10:16:56;12.50;99.90
24664;DHT22;12791;50.992;13.788;2023-04-16T10:19:24;12.50;99.90
24664;DHT22;12791;50.992;13.788;2023-04-16T10:21:50;12.50;99.90
24664;DHT22;12791;50.992;13.788;2023-04-16T10:24:18;12.50;99.90
24664;DHT22;12791;50.992;13.788;2023-04-16T10:26:46;12.50;99.90
24664;DHT22;12791;50.992;13.788;2023-04-16T10:29:15;12.50;99.90
24664;DHT22;12791;50.992;13.788;2023-04-16T10:31:42;12.50;99.90
24664;DHT22;12791;50.992;13.788;2023-04-16T10:34:09;12.50;99.90
24664;DHT22;12791;50.992;13.788;2023-04-16T10:36:36;12.50;99.90
24664;DHT22;12791;50.992;13.788;2023-04-16T10:39:03;12.60;99.90
24664;DHT22;12791;50.992;13.788;2023-04-16T10:41:31;12.60;99.90
24664;DHT22;12791;50.992;13.788;2023-04-16T10:44:04;12.60;99.90
24664;DHT22;12791;50.992;13.788;2023-04-16T10:46:36;12.70;99.90
24664;DHT22;12791;50.992;13.788;2023-04-16T10:49:12;12.80;99.90
24664;DHT22;12791;50.992;13.788;2023-04-16T10:51:39;12.80;99.90
24664;DHT22;12791;50.992;13.788;2023-04-16T10:54:19;12.80;99.90
24664;DHT22;12791;50.992;13.788;2023-04-16T10:56:46;12.70;99.90
24664;DHT22;12791;50.992;13.788;2023-04-16T10:59:18;12.80;99.90
24664;DHT22;12791;50.992;13.788;2023-04-16T11:01:46;12.70;99.90
24664;DHT22;12791;50.992;13.788;2023-04-16T11:04:27;12.80;99.90
24664;DHT22;12791;50.992;13.788;2023-04-16T11:07:06;12.90;99.90
24664;DHT22;12791;50.992;13.788;2023-04-16T11:09:49;12.90;99.90
24664;DHT22;12791;50.992;13.788;2023-04-16T11:12:17;13.00;99.90
24664;DHT22;12791;50.992;13.788;2023-04-16T11:14:48;13.10;99.90
24664;DHT22;12791;50.992;13.788;2023-04-16T11:17:15;13.10;99.90
24664;DHT22;12791;50.992;13.788;2023-04-16T11:19:42;13.20;99.90
24664;DHT22;12791;50.992;13.788;2023-04-16T11:22:11;13.20;99.90
24664;DHT22;12791;50.992;13.788;2023-04-16T11:24:38;13.20;99.90
24664;DHT22;12791;50.992;13.788;2023-04-16T11:27:05;13.20;99.90
24664;DHT22;12791;50.992;13.788;2023-04-16T11:29:32;13.30;99.90
24664;DHT22;12791;50.992;13.788;2023-04-16T11:32:00;13.30;99.90
24664;DHT22;12791;50.992;13.788;2023-04-16T11:34:27;13.40;99.90
24664;DHT22;12791;50.992;13.788;2023-04-16T11:36:53;13.40;99.90
24664;DHT22;12791;50.992;13.788;2023-04-16T11:39:20;13.50;99.90
24664;DHT22;12791;50.992;13.788;2023-04-16T11:41:47;13.50;99.90
24664;DHT22;12791;50.992;13.788;2023-04-16T11:44:22;13.50;99.90
24664;DHT22;12791;50.992;13.788;2023-04-16T11:46:49;13.50;99.90
24664;DHT22;12791;50.992;13.788;2023-04-16T11:49:26;13.60;99.90
24664;DHT22;12791;50.992;13.788;2023-04-16T11:51:52;13.60;99.90
24664;DHT22;12791;50.992;13.788;2023-04-16T11:54:20;13.70;99.90
24664;DHT22;12791;50.992;13.788;2023-04-16T11:56:48;13.70;99.90
24664;DHT22;12791;50.992;13.788;2023-04-16T11:59:16;13.70;99.90
24664;DHT22;12791;50.992;13.788;2023-04-16T12:01:46;13.70;99.90
24664;DHT22;12791;50.992;13.788;2023-04-16T12:04:14;13.80;98.80
24664;DHT22;12791;50.992;13.788;2023-04-16T12:07:08;13.90;97.70
24664;DHT22;12791;50.992;13.788;2023-04-16T12:09:36;13.90;95.10
24664;DHT22;12791;50.992;13.788;2023-04-16T12:12:03;13.80;95.80
24664;DHT22;12791;50.992;13.788;2023-04-16T12:14:31;13.80;95.30
24664;DHT22;12791;50.992;13.788;2023-04-16T12:17:16;13.80;91.50
24664;DHT22;12791;50.992;13.788;2023-04-16T12:19:50;13.80;91.80
24664;DHT22;12791;50.992;13.788;2023-04-16T12:22:26;13.80;90.00
24664;DHT22;12791;50.992;13.788;2023-04-16T12:24:55;13.80;86.20
24664;DHT22;12791;50.992;13.788;2023-04-16T12:27:22;13.80;86.10
24664;DHT22;12791;50.992;13.788;2023-04-16T12:30:02;13.80;87.60
24664;DHT22;12791;50.992;13.788;2023-04-16T12:32:29;13.80;87.60
24664;DHT22;12791;50.992;13.788;2023-04-16T12:34:56;13.90;87.70
24664;DHT22;12791;50.992;13.788;2023-04-16T12:37:24;13.90;85.10
24664;DHT22;12791;50.992;13.788;2023-04-16T12:39:50;13.90;84.80
24664;DHT22;12791;50.992;13.788;2023-04-16T12:42:17;14.00;83.70
24664;DHT22;12791;50.992;13.788;2023-04-16T12:44:43;14.00;77.80
24664;DHT22;12791;50.992;13.788;2023-04-16T12:47:10;14.00;77.90
24664;DHT22;12791;50.992;13.788;2023-04-16T12:49:37;14.00;77.30
24664;DHT22;12791;50.992;13.788;2023-04-16T12:52:04;14.00;77.70
24664;DHT22;12791;50.992;13.788;2023-04-16T12:54:32;14.10;77.30
24664;DHT22;12791;50.992;13.788;2023-04-16T12:56:58;14.20;73.80
24664;DHT22;12791;50.992;13.788;2023-04-16T12:59:25;14.20;74.50
24664;DHT22;12791;50.992;13.788;2023-04-16T13:01:51;14.20;75.30
24664;DHT22;12791;50.992;13.788;2023-04-16T13:04:18;14.30;75.60
24664;DHT22;12791;50.992;13.788;2023-04-16T13:06:44;14.30;75.80
24664;DHT22;12791;50.992;13.788;2023-04-16T13:09:11;14.30;75.10
24664;DHT22;12791;50.992;13.788;2023-04-16T13:11:39;14.30;70.90
24664;DHT22;12791;50.992;13.788;2023-04-16T13:14:06;14.30;72.40
24664;DHT22;12791;50.992;13.788;2023-04-16T13:16:32;14.30;72.80
24664;DHT22;12791;50.992;13.788;2023-04-16T13:18:59;14.30;74.50
24664;DHT22;12791;50.992;13.788;2023-04-16T13:21:25;14.30;75.00
24664;DHT22;12791;50.992;13.788;2023-04-16T13:23:53;14.30;75.90
24664;DHT22;12791;50.992;13.788;2023-04-16T13:26:19;14.30;76.90
24664;DHT22;12791;50.992;13.788;2023-04-16T13:28:47;14.30;79.10
24664;DHT22;12791;50.992;13.788;2023-04-16T13:31:14;14.30;78.80
24664;DHT22;12791;50.992;13.788;2023-04-16T13:33:44;14.30;78.20
24664;DHT22;12791;50.992;13.788;2023-04-16T13:36:11;14.30;77.50
24664;DHT22;12791;50.992;13.788;2023-04-16T13:38:38;14.30;77.60
24664;DHT22;12791;50.992;13.788;2023-04-16T13:41:04;14.40;74.40
24664;DHT22;12791;50.992;13.788;2023-04-16T13:43:31;14.40;72.90
24664;DHT22;12791;50.992;13.788;2023-04-16T13:45:59;14.50;72.30
24664;DHT22;12791;50.992;13.788;2023-04-16T13:48:27;14.60;69.20
24664;DHT22;12791;50.992;13.788;2023-04-16T13:50:54;14.60;70.10
24664;DHT22;12791;50.992;13.788;2023-04-16T13:53:20;14.60;70.50
24664;DHT22;12791;50.992;13.788;2023-04-16T13:55:47;14.70;70.20
24664;DHT22;12791;50.992;13.788;2023-04-16T13:58:14;14.70;68.10
24664;DHT22;12791;50.992;13.788;2023-04-16T14:00:41;14.70;69.40
24664;DHT22;12791;50.992;13.788;2023-04-16T14:03:09;14.60;71.10
24664;DHT22;12791;50.992;13.788;2023-04-16T14:05:35;14.60;72.20
24664;DHT22;12791;50.992;13.788;2023-04-16T14:08:02;14.60;73.00
24664;DHT22;12791;50.992;13.788;2023-04-16T14:10:30;14.50;73.00
24664;DHT22;12791;50.992;13.788;2023-04-16T14:12:57;14.50;71.90
24664;DHT22;12791;50.992;13.788;2023-04-16T14:15:23;14.50;72.70
24664;DHT22;12791;50.992;13.788;2023-04-16T14:17:51;14.40;72.80
24664;DHT22;12791;50.992;13.788;2023-04-16T14:20:20;14.40;74.00
24664;DHT22;12791;50.992;13.788;2023-04-16T14:22:46;14.40;79.40
24664;DHT22;12791;50.992;13.788;2023-04-16T14:25:13;14.30;84.80
24664;DHT22;12791;50.992;13.788;2023-04-16T14:27:39;14.20;85.80
24664;DHT22;12791;50.992;13.788;2023-04-16T14:30:07;14.10;90.50
24664;DHT22;12791;50.992;13.788;2023-04-16T14:32:33;14.00;90.60
24664;DHT22;12791;50.992;13.788;2023-04-16T14:35:00;14.00;90.80
24664;DHT22;12791;50.992;13.788;2023-04-16T14:37:29;13.90;92.10
24664;DHT22;12791;50.992;13.788;2023-04-16T14:39:56;13.90;92.30
24664;DHT22;12791;50.992;13.788;2023-04-16T14:42:23;13.90;93.10
24664;DHT22;12791;50.992;13.788;2023-04-16T14:44:50;13.90;93.40
24664;DHT22;12791;50.992;13.788;2023-04-16T14:47:17;14.00;93.90
24664;DHT22;12791;50.992;13.788;2023-04-16T14:49:43;14.00;96.40
24664;DHT22;12791;50.992;13.788;2023-04-16T14:52:10;13.90;98.40
24664;DHT22;12791;50.992;13.788;2023-04-16T14:54:38;13.90;99.90
24664;DHT22;12791;50.992;13.788;2023-04-16T14:57:05;13.80;99.90
24664;DHT22;12791;50.992;13.788;2023-04-16T14:59:31;13.70;99.90
24664;DHT22;12791;50.992;13.788;2023-04-16T15:01:58;13.60;99.90
24664;DHT22;12791;50.992;13.788;2023-04-16T15:04:25;13.60;99.90
24664;DHT22;12791;50.992;13.788;2023-04-16T15:06:52;13.60;99.90
24664;DHT22;12791;50.992;13.788;2023-04-16T15:09:18;13.70;99.90
24664;DHT22;12791;50.992;13.788;2023-04-16T15:11:46;13.70;99.90
24664;DHT22;12791;50.992;13.788;2023-04-16T15:14:13;13.60;99.90
24664;DHT22;12791;50.992;13.788;2023-04-16T15:16:39;13.60;99.90
24664;DHT22;12791;50.992;13.788;2023-04-16T15:19:06;13.50;99.90
24664;DHT22;12791;50.992;13.788;2023-04-16T15:21:32;13.40;99.90
24664;DHT22;12791;50.992;13.788;2023-04-16T15:23:59;13.30;99.90
24664;DHT22;12791;50.992;13.788;2023-04-16T15:26:26;13.20;99.90